Time;durP1;ratioP1;P1;durP2;ratioP2;P2;SDS_P1;SDS_P2;PMS_P1;PMS_P2;Temp;Humidity;BMP_temperature;BMP_pressure;BME280_temperature;BME280_humidity;BME280_pressure;Samples;Min_cycle;Max_cycle;Signal;HPM_P1;HPM_P2
2022/03/25 00:01:38;;;;;;;39.67;30.08;;;;;;;8.97;70.56;102969.41;5052550;28;20116;-36
2022/03/25 00:04:04;;;;;;;40.30;28.73;;;;;;;8.88;72.02;102973.09;5052742;28;20369;-45
2022/03/25 00:06:30;;;;;;;41.83;30.00;;;;;;;8.84;71.71;102978.00;5052706;28;20465;-36
2022/03/25 00:08:55;;;;;;;37.05;30.52;;;;;;;8.77;72.25;102974.28;5052491;28;20534;-36
2022/03/25 00:11:20;;;;;;;39.10;29.93;;;;;;;8.81;72.06;102970.25;5052563;28;20050;-36
2022/03/25 00:13:46;;;;;;;40.13;29.73;;;;;;;8.71;72.12;102974.97;5053020;28;20040;-36
2022/03/25 00:16:11;;;;;;;39.03;30.10;;;;;;;8.62;71.77;102971.41;5052367;28;20385;-36
2022/03/25 00:18:37;;;;;;;38.38;31.00;;;;;;;8.61;72.41;102972.41;5052579;28;20021;-36
2022/03/25 00:21:02;;;;;;;38.77;29.37;;;;;;;8.50;73.43;102968.19;5052255;28;20103;-36
2022/03/25 00:23:27;;;;;;;36.53;28.97;;;;;;;8.44;73.32;102960.75;5052185;28;20029;-36
2022/03/25 00:25:53;;;;;;;38.87;28.67;;;;;;;8.45;73.32;102978.63;5052798;28;20025;-36
2022/03/25 00:28:20;;;;;;;38.97;29.85;;;;;;;8.46;73.46;102980.31;5052128;28;20363;-36
2022/03/25 00:30:46;;;;;;;37.53;27.58;;;;;;;8.34;73.57;102973.47;5052284;28;20055;-36
2022/03/25 00:33:12;;;;;;;35.85;28.50;;;;;;;8.34;71.75;102978.88;5051343;28;20021;-36
2022/03/25 00:35:38;;;;;;;37.25;29.33;;;;;;;8.28;73.39;102979.53;5052144;28;20025;-36
2022/03/25 00:38:03;;;;;;;36.85;28.02;;;;;;;8.27;72.44;102972.47;5055810;28;20024;-36
2022/03/25 00:40:29;;;;;;;39.67;28.63;;;;;;;8.18;73.11;102976.13;5056682;28;20112;-36
2022/03/25 00:42:54;;;;;;;37.57;29.47;;;;;;;8.14;73.73;102970.22;5056179;28;20332;-36
2022/03/25 00:45:21;;;;;;;36.70;29.08;;;;;;;8.04;73.28;102964.13;5056146;28;20275;-35
2022/03/25 00:47:46;;;;;;;;;;;;;;;8.22;70.85;102974.81;5056506;28;20462;-35
2022/03/25 00:50:11;;;;;;;35.53;26.87;;;;;;;8.03;73.18;102969.69;5055713;28;19913;-35
2022/03/25 00:52:37;;;;;;;32.93;26.03;;;;;;;7.99;72.12;102961.91;5056011;28;20230;-35
2022/03/25 00:55:05;;;;;;;38.25;27.90;;;;;;;7.92;71.82;102970.81;5056649;28;20112;-35
2022/03/25 00:57:30;;;;;;;36.63;27.50;;;;;;;7.97;72.67;102966.63;5054372;28;20025;-35
2022/03/25 00:59:56;;;;;;;32.28;24.58;;;;;;;7.93;72.64;102965.28;5055899;28;20039;-35
2022/03/25 01:02:21;;;;;;;35.70;27.20;;;;;;;7.95;72.04;102962.41;5055530;28;20337;-35
2022/03/25 01:04:46;;;;;;;30.90;24.67;;;;;;;7.89;72.41;102963.91;5056255;28;20329;-35
2022/03/25 01:07:12;;;;;;;33.23;27.03;;;;;;;7.66;73.10;102966.34;5055025;28;20072;-35
2022/03/25 01:09:37;;;;;;;32.72;26.83;;;;;;;7.61;72.69;102965.97;5056020;28;20021;-35
2022/03/25 01:12:03;;;;;;;31.37;25.37;;;;;;;7.69;72.58;102978.63;5055580;28;20056;-35
2022/03/25 01:14:28;;;;;;;32.80;25.52;;;;;;;7.69;73.04;102973.22;5056074;28;20037;-35
2022/03/25 01:16:54;;;;;;;35.50;26.77;;;;;;;7.59;72.72;102978.72;5056293;28;20111;-35
2022/03/25 01:19:20;;;;;;;29.07;24.13;;;;;;;7.61;72.71;102967.78;5055228;28;20029;-35
2022/03/25 01:21:46;;;;;;;34.10;25.58;;;;;;;7.60;71.97;102975.03;5054177;28;20029;-35
2022/03/25 01:24:11;;;;;;;33.78;25.00;;;;;;;7.44;72.55;102965.00;5055920;28;20024;-35
2022/03/25 01:26:37;;;;;;;34.03;24.63;;;;;;;7.50;72.22;102976.97;5055070;28;20036;-35
2022/03/25 01:29:04;;;;;;;34.77;24.87;;;;;;;7.44;72.76;102978.47;5055312;28;20045;-34
2022/03/25 01:31:30;;;;;;;31.90;24.70;;;;;;;7.44;72.16;102975.78;5055242;28;20025;-35
2022/03/25 01:33:56;;;;;;;35.35;25.40;;;;;;;7.48;72.74;102974.47;5055213;28;20025;-35
2022/03/25 01:36:22;;;;;;;29.40;23.73;;;;;;;7.35;72.16;102957.88;5055461;28;20079;-35
2022/03/25 01:38:48;;;;;;;34.63;24.95;;;;;;;7.34;72.77;102968.81;5055452;28;20083;-35
2022/03/25 01:41:17;;;;;;;32.58;23.08;;;;;;;7.30;72.07;102968.28;5054835;28;20119;-35
2022/03/25 01:43:54;;;;;;;29.35;23.02;;;;;;;7.26;72.08;102964.19;5055106;28;20112;-35
2022/03/25 01:46:20;;;;;;;;;;;;;;;7.42;70.66;102972.41;5056190;28;20025;-35
2022/03/25 01:48:46;;;;;;;33.13;24.23;;;;;;;7.19;71.86;102958.63;5053560;28;19936;-35
2022/03/25 01:51:15;;;;;;;31.40;23.08;;;;;;;7.27;71.21;102965.91;5055370;28;20095;-35
2022/03/25 01:53:40;;;;;;;29.95;23.63;;;;;;;7.15;71.66;102959.09;5055320;28;20025;-34
2022/03/25 01:56:05;;;;;;;29.10;23.63;;;;;;;7.21;71.13;102961.97;5054503;28;20028;-35
2022/03/25 01:58:32;;;;;;;32.60;24.55;;;;;;;7.09;70.88;102975.88;5054931;28;20130;-35
2022/03/25 02:00:59;;;;;;;30.98;22.67;;;;;;;7.09;71.54;102978.56;5055138;28;20056;-35
2022/03/25 02:03:26;;;;;;;28.70;22.42;;;;;;;7.00;71.75;102976.78;5054655;28;20053;-41
2022/03/25 02:05:51;;;;;;;30.20;23.40;;;;;;;7.02;70.89;102966.72;5054983;28;20025;-35
2022/03/25 02:08:19;;;;;;;30.50;21.73;;;;;;;6.87;70.11;102958.34;5054570;28;20043;-35
2022/03/25 02:10:45;;;;;;;30.83;22.10;;;;;;;6.95;71.02;102974.56;5054735;28;20060;-35
2022/03/25 02:13:11;;;;;;;31.20;22.37;;;;;;;6.89;70.64;102959.91;5054521;28;20108;-35
2022/03/25 02:15:42;;;;;;;29.92;21.35;;;;;;;6.91;69.83;102960.56;5054487;28;20088;-35
2022/03/25 02:18:14;;;;;;;29.40;21.45;;;;;;;6.96;69.97;102960.94;5054337;28;20052;-35
2022/03/25 02:20:42;;;;;;;27.13;20.75;;;;;;;6.99;69.56;102970.56;5054602;28;20188;-36
2022/03/25 02:23:09;;;;;;;31.83;23.02;;;;;;;6.89;68.97;102973.34;5054329;28;20105;-35
2022/03/25 02:25:35;;;;;;;27.13;20.63;;;;;;;6.90;69.44;102972.34;5054778;28;20059;-35
2022/03/25 02:28:04;;;;;;;30.48;22.40;;;;;;;6.80;69.28;102954.59;5054133;28;20024;-35
2022/03/25 02:30:30;;;;;;;27.48;20.73;;;;;;;6.73;68.82;102962.41;5054585;28;20079;-35
2022/03/25 02:33:00;;;;;;;31.58;21.17;;;;;;;6.75;68.94;102962.28;5054063;28;20481;-35
2022/03/25 02:35:54;;;;;;;26.48;21.23;;;;;;;6.73;69.42;102965.09;5053859;28;20182;-35
2022/03/25 02:38:22;;;;;;;28.27;21.42;;;;;;;6.55;70.42;102956.22;5011896;28;20195;-35
2022/03/25 02:40:48;;;;;;;28.15;21.33;;;;;;;6.62;69.18;102965.34;5012457;28;20038;-34
2022/03/25 02:43:14;;;;;;;32.40;22.08;;;;;;;6.52;69.73;102957.34;5011991;28;20037;-34
2022/03/25 02:45:40;;;;;;;26.13;21.27;;;;;;;6.53;68.82;102967.09;5011872;28;20038;-34
2022/03/25 02:48:07;;;;;;;29.25;21.10;;;;;;;6.45;69.15;102950.91;5011779;28;20045;-34
2022/03/25 02:50:32;;;;;;;28.00;21.63;;;;;;;6.36;68.53;102966.09;5012399;28;20033;-34
2022/03/25 02:52:59;;;;;;;25.58;20.85;;;;;;;6.42;69.59;102954.72;5011742;28;20052;-34
2022/03/25 02:55:25;;;;;;;27.23;20.40;;;;;;;6.39;69.34;102949.69;4995857;28;20482;-35
2022/03/25 02:57:54;;;;;;;25.85;20.05;;;;;;;6.29;67.41;102967.69;5011501;28;20088;-34
2022/03/25 03:00:21;;;;;;;30.08;22.38;;;;;;;6.24;69.92;102964.59;5011754;28;20141;-34
2022/03/25 03:02:47;;;;;;;30.05;22.35;;;;;;;6.17;70.19;102971.59;5011646;28;20406;-34
2022/03/25 03:05:13;;;;;;;32.80;21.80;;;;;;;6.21;70.55;102969.47;5012047;28;20061;-35
2022/03/25 03:07:39;;;;;;;33.67;21.92;;;;;;;6.26;70.37;102973.38;5011382;28;20034;-35
2022/03/25 03:10:06;;;;;;;28.10;21.33;;;;;;;6.16;69.96;102960.00;5011435;28;20034;-35
2022/03/25 03:12:32;;;;;;;32.17;22.35;;;;;;;6.10;70.73;102978.53;5011304;28;20044;-35
2022/03/25 03:14:59;;;;;;;32.83;22.10;;;;;;;6.03;69.89;102962.19;5037425;28;20067;-35
2022/03/25 03:17:24;;;;;;;33.13;23.38;;;;;;;5.91;70.35;102961.56;5053934;28;20039;-35
2022/03/25 03:19:50;;;;;;;29.93;22.37;;;;;;;5.97;71.34;102980.75;5054022;28;20033;-35
2022/03/25 03:22:17;;;;;;;29.60;22.42;;;;;;;5.85;69.68;102978.19;5053482;28;20515;-35
2022/03/25 03:24:43;;;;;;;26.77;21.70;;;;;;;5.90;70.62;102970.56;5053676;28;20373;-34
2022/03/25 03:27:08;;;;;;;32.53;22.27;;;;;;;5.79;70.27;102961.84;5053159;28;20028;-34
2022/03/25 03:29:33;;;;;;;28.67;21.53;;;;;;;5.76;70.87;102971.06;5052802;28;20407;-35
2022/03/25 03:31:58;;;;;;;28.77;22.13;;;;;;;5.70;69.35;102960.88;5053297;28;20029;-35
2022/03/25 03:34:24;;;;;;;32.63;23.57;;;;;;;5.60;71.12;102962.75;5052828;28;20056;-35
2022/03/25 03:36:50;;;;;;;28.53;22.43;;;;;;;5.60;70.54;102970.81;5052827;28;20104;-35
2022/03/25 03:39:15;;;;;;;26.35;21.20;;;;;;;5.67;71.39;102971.94;5052993;28;20126;-35
2022/03/25 03:41:40;;;;;;;30.93;22.73;;;;;;;5.65;71.28;102974.75;5053203;28;20036;-35
2022/03/25 03:44:06;;;;;;;27.90;21.50;;;;;;;5.72;71.09;102969.66;5053451;28;20048;-35
2022/03/25 03:46:33;;;;;;;29.45;22.73;;;;;;;5.61;71.97;102976.06;5052593;28;20041;-35
2022/03/25 03:48:58;;;;;;;29.80;22.08;;;;;;;5.46;70.62;102947.13;5053283;28;20429;-35
2022/03/25 03:51:23;;;;;;;26.83;22.03;;;;;;;5.53;71.10;102969.72;5053444;28;20029;-35
2022/03/25 03:53:49;;;;;;;28.57;21.47;;;;;;;5.55;71.30;102973.09;5053078;28;20263;-35
2022/03/25 03:56:14;;;;;;;32.90;22.63;;;;;;;5.42;70.74;102968.91;5053639;28;20078;-35
2022/03/25 03:58:40;;;;;;;29.93;23.57;;;;;;;5.36;70.66;102968.63;5052944;28;20041;-35
2022/03/25 04:01:05;;;;;;;27.92;22.10;;;;;;;5.30;71.53;102951.25;5052794;28;20282;-34
2022/03/25 04:03:31;;;;;;;30.60;22.37;;;;;;;5.38;71.71;102967.50;5053215;28;20025;-34
2022/03/25 04:05:57;;;;;;;34.10;23.27;;;;;;;5.33;72.76;102968.94;5052772;28;20747;-34
2022/03/25 04:08:23;;;;;;;;;;;;;;;5.41;71.61;102977.06;5053088;28;20260;-34
2022/03/25 04:10:48;;;;;;;29.30;22.00;;;;;;;5.31;72.30;102974.41;5052716;28;19924;-34
2022/03/25 04:13:14;;;;;;;28.53;21.97;;;;;;;5.11;71.01;102960.19;5056336;28;20477;-34
2022/03/25 04:15:39;;;;;;;31.10;23.23;;;;;;;5.21;72.21;102976.28;5056546;28;20025;-34
2022/03/25 04:18:04;;;;;;;29.83;23.27;;;;;;;5.15;72.55;102976.84;5056766;28;20025;-34
2022/03/25 04:20:30;;;;;;;32.13;23.80;;;;;;;5.13;72.57;102979.69;5057210;28;20021;-34
2022/03/25 04:22:55;;;;;;;28.90;22.47;;;;;;;5.03;72.62;102964.59;5056845;28;20289;-35
2022/03/25 04:25:20;;;;;;;30.10;23.53;;;;;;;5.09;72.93;102988.16;5056400;28;20134;-34
2022/03/25 04:27:57;;;;;;;32.13;23.90;;;;;;;5.09;72.73;102988.16;5056385;28;20028;-34
2022/03/25 04:30:27;;;;;;;32.65;23.25;;;;;;;5.01;72.99;102996.06;5056892;28;20041;-34
2022/03/25 04:32:54;;;;;;;33.15;23.40;;;;;;;5.04;73.36;102988.59;5056191;28;20032;-34
2022/03/25 04:35:19;;;;;;;;;;;;;;;5.15;71.35;102993.78;5056680;28;20036;-34
2022/03/25 04:37:45;;;;;;;30.63;23.23;;;;;;;5.01;73.12;102993.38;5056831;28;19913;-34
2022/03/25 04:40:12;;;;;;;33.47;23.35;;;;;;;4.99;73.34;102984.63;5057086;28;20162;-34
2022/03/25 04:42:38;;;;;;;31.08;23.38;;;;;;;5.03;72.96;102988.72;5056505;28;20104;-35
2022/03/25 04:45:04;;;;;;;30.52;23.40;;;;;;;4.94;72.80;102989.59;5056461;28;20126;-35
2022/03/25 04:47:29;;;;;;;32.78;24.55;;;;;;;4.90;73.21;102979.13;5056560;28;20374;-35
2022/03/25 04:49:55;;;;;;;31.77;22.83;;;;;;;4.86;73.41;102983.06;5056127;28;20430;-35
2022/03/25 04:52:20;;;;;;;33.13;24.73;;;;;;;4.85;73.30;102989.44;5056140;28;20025;-35
2022/03/25 04:54:45;;;;;;;33.50;23.57;;;;;;;4.89;73.31;102992.69;5055801;28;20136;-35
2022/03/25 04:57:11;;;;;;;33.40;24.17;;;;;;;4.90;73.02;102994.38;5056677;28;20056;-35
2022/03/25 04:59:36;;;;;;;34.63;23.63;;;;;;;4.80;72.86;102989.00;5057119;28;20132;-34
2022/03/25 05:02:01;;;;;;;31.27;23.47;;;;;;;4.77;72.64;102991.13;5056378;28;20052;-35
2022/03/25 05:04:27;;;;;;;31.90;23.27;;;;;;;4.58;73.72;102978.53;5056434;28;20065;-35
2022/03/25 05:06:52;;;;;;;33.67;23.63;;;;;;;4.62;73.75;102996.03;5056304;28;20123;-35
2022/03/25 05:09:18;;;;;;;29.80;23.17;;;;;;;4.52;74.02;102981.78;5055741;28;20029;-35
2022/03/25 05:11:43;;;;;;;32.70;24.00;;;;;;;4.52;73.47;102996.03;5055756;28;20357;-34
2022/03/25 05:14:10;;;;;;;32.78;24.80;;;;;;;4.54;73.71;102994.06;5055880;28;20111;-34
2022/03/25 05:16:35;;;;;;;34.58;25.15;;;;;;;4.39;72.89;102988.28;5055981;28;20033;-34
2022/03/25 05:19:01;;;;;;;36.92;24.45;;;;;;;4.42;74.13;102995.16;5055545;28;20533;-34
2022/03/25 05:21:26;;;;;;;33.00;24.87;;;;;;;4.19;74.56;102966.91;5055612;28;20064;-34
2022/03/25 05:23:51;;;;;;;35.10;26.80;;;;;;;4.37;74.74;103008.97;5053760;28;20027;-35
2022/03/25 05:26:16;;;;;;;32.40;24.70;;;;;;;4.40;75.54;103002.50;5055120;28;20025;-35
2022/03/25 05:28:42;;;;;;;30.97;24.70;;;;;;;4.38;75.30;103007.13;5055264;28;20025;-35
2022/03/25 05:31:07;;;;;;;41.53;25.80;;;;;;;4.30;74.84;102991.75;5055566;28;20025;-35
2022/03/25 05:33:33;;;;;;;33.00;24.58;;;;;;;4.37;75.56;102998.25;5054989;28;20032;-35
2022/03/25 05:35:58;;;;;;;31.30;24.23;;;;;;;4.34;75.13;103003.91;5055247;28;20112;-35
2022/03/25 05:38:23;;;;;;;32.97;24.87;;;;;;;4.34;75.36;102992.31;5055293;28;20021;-35
2022/03/25 05:40:49;;;;;;;35.43;25.47;;;;;;;4.41;75.36;103008.72;5055730;28;20446;-35
2022/03/25 05:43:14;;;;;;;32.90;25.13;;;;;;;4.42;75.29;103005.88;5054811;28;20029;-35
2022/03/25 05:45:40;;;;;;;38.10;27.30;;;;;;;4.46;75.88;103006.47;5055078;28;20259;-35
2022/03/25 05:48:05;;;;;;;38.03;27.60;;;;;;;4.42;75.32;103010.41;5054809;28;20107;-35
2022/03/25 05:50:31;;;;;;;37.50;26.97;;;;;;;4.37;76.15;103003.63;5054871;28;20025;-35
2022/03/25 05:52:56;;;;;;;40.03;26.93;;;;;;;4.38;75.46;102999.94;5054647;28;20275;-35
2022/03/25 05:55:22;;;;;;;35.00;25.47;;;;;;;4.52;74.96;103011.25;5055777;28;20048;-36
2022/03/25 05:57:47;;;;;;;34.53;26.27;;;;;;;4.51;75.86;103014.94;5055159;28;20049;-36
2022/03/25 06:00:14;;;;;;;33.53;26.03;;;;;;;4.44;74.45;103016.44;5055209;28;20031;-36
2022/03/25 06:02:43;;;;;;;38.33;27.45;;;;;;;4.50;75.63;103029.31;5054765;28;20067;-36
2022/03/25 06:05:10;;;;;;;36.03;26.73;;;;;;;4.57;75.48;103012.53;5055211;28;20115;-36
2022/03/25 06:07:40;;;;;;;38.15;27.73;;;;;;;4.69;75.87;103002.56;5054864;28;20082;-36
2022/03/25 06:10:07;;;;;;;36.88;26.88;;;;;;;4.68;75.34;103011.56;5054626;28;20116;-35
2022/03/25 06:12:33;;;;;;;35.65;27.08;;;;;;;4.71;75.83;103011.28;5054796;28;20028;-35
2022/03/25 06:14:58;;;;;;;37.53;28.10;;;;;;;4.71;76.10;103021.16;5055596;28;20445;-35
2022/03/25 06:17:25;;;;;;;37.10;27.57;;;;;;;4.81;73.76;103025.53;5054530;28;20048;-35
2022/03/25 06:19:50;;;;;;;37.97;28.33;;;;;;;4.79;75.71;103024.00;5054404;28;20029;-35
2022/03/25 06:22:16;;;;;;;36.47;27.77;;;;;;;4.80;76.27;103018.50;5054682;28;20029;-35
2022/03/25 06:24:41;;;;;;;43.00;30.60;;;;;;;4.87;76.63;103022.28;5054883;28;20170;-35
2022/03/25 06:27:06;;;;;;;39.30;30.10;;;;;;;4.96;76.50;103042.06;5054564;28;20174;-35
2022/03/25 06:29:32;;;;;;;38.03;28.73;;;;;;;5.03;76.83;103031.66;5054474;28;20020;-35
2022/03/25 06:31:57;;;;;;;39.87;31.53;;;;;;;5.09;76.24;103036.44;5053263;28;20047;-35
2022/03/25 06:34:23;;;;;;;38.13;29.60;;;;;;;5.20;74.39;103036.28;5054762;28;20048;-34
2022/03/25 06:36:48;;;;;;;40.50;31.55;;;;;;;5.25;75.49;103031.34;5053999;28;20029;-34
2022/03/25 06:39:14;;;;;;;40.60;32.10;;;;;;;5.34;76.64;103041.22;5054135;28;20128;-35
2022/03/25 06:41:40;;;;;;;41.67;31.80;;;;;;;5.37;75.87;103046.31;5054497;28;20392;-34
2022/03/25 06:44:06;;;;;;;44.23;33.53;;;;;;;5.36;76.08;103041.91;5054600;28;20112;-34
2022/03/25 06:46:32;;;;;;;42.25;33.08;;;;;;;5.42;75.20;103041.34;5054318;28;20029;-34
2022/03/25 06:48:58;;;;;;;43.97;34.20;;;;;;;5.36;74.84;103033.84;5053620;28;20334;-35
2022/03/25 06:51:23;;;;;;;45.03;33.47;;;;;;;5.55;76.24;103043.72;5054031;28;20037;-35
2022/03/25 06:53:49;;;;;;;40.70;32.42;;;;;;;5.51;75.25;103028.88;5053852;28;20025;-35
2022/03/25 06:56:15;;;;;;;43.10;33.95;;;;;;;5.63;75.68;103051.91;5053589;28;20109;-35
2022/03/25 06:58:40;;;;;;;47.42;34.83;;;;;;;5.71;76.34;103061.06;5053672;28;20044;-35
2022/03/25 07:01:06;;;;;;;44.50;34.55;;;;;;;5.71;76.03;103036.88;5053848;28;20514;-35
2022/03/25 07:03:35;;;;;;;46.67;35.77;;;;;;;5.72;75.66;103034.09;5053593;28;20021;-35
2022/03/25 07:06:01;;;;;;;43.97;33.88;;;;;;;5.91;76.11;103057.34;5054146;28;20052;-35
2022/03/25 07:08:29;;;;;;;45.80;36.33;;;;;;;5.98;75.24;103058.47;5053817;28;20108;-35
2022/03/25 07:10:54;;;;;;;46.15;36.05;;;;;;;6.13;75.28;103064.22;5053780;28;20028;-35
2022/03/25 07:13:20;;;;;;;46.55;33.83;;;;;;;6.21;75.79;103064.34;5053395;28;20029;-35
2022/03/25 07:15:45;;;;;;;46.55;36.55;;;;;;;6.27;76.02;103060.22;5054135;28;20029;-35
2022/03/25 07:18:11;;;;;;;48.37;37.80;;;;;;;6.33;75.50;103063.13;5053678;28;20032;-35
2022/03/25 07:20:36;;;;;;;48.73;35.90;;;;;;;6.35;75.01;103049.56;5053149;28;20025;-35
2022/03/25 07:23:02;;;;;;;45.63;36.23;;;;;;;6.41;74.88;103062.41;5053265;28;20047;-35
2022/03/25 07:25:27;;;;;;;46.40;36.60;;;;;;;6.54;75.10;103056.66;5052460;28;20037;-35
2022/03/25 07:27:53;;;;;;;40.95;34.30;;;;;;;6.70;74.85;103070.31;5053178;28;20024;-35
2022/03/25 07:30:19;;;;;;;44.38;36.33;;;;;;;6.75;74.60;103067.16;5053714;28;20032;-35
2022/03/25 07:32:44;;;;;;;46.17;37.53;;;;;;;6.83;74.70;103072.59;5053406;28;20028;-35
2022/03/25 07:35:10;;;;;;;44.85;36.00;;;;;;;6.98;73.87;103068.41;5052873;28;20025;-35
2022/03/25 07:37:37;;;;;;;45.05;36.45;;;;;;;7.05;74.02;103082.09;5053596;28;20067;-35
2022/03/25 07:40:04;;;;;;;47.72;37.97;;;;;;;7.07;73.69;103074.69;5053159;28;20033;-35
2022/03/25 07:42:29;;;;;;;42.17;34.85;;;;;;;7.18;73.49;103083.41;5052748;28;20492;-35
2022/03/25 07:44:57;;;;;;;45.30;37.70;;;;;;;7.32;73.36;103083.84;5053354;28;20029;-35
2022/03/25 07:47:22;;;;;;;47.13;37.78;;;;;;;7.40;73.08;103092.84;5052163;28;20286;-35
2022/03/25 07:49:48;;;;;;;48.13;39.40;;;;;;;7.47;72.90;103090.38;5053476;28;20115;-35
2022/03/25 07:52:14;;;;;;;54.77;38.93;;;;;;;7.49;72.69;103089.22;5052944;28;20283;-34
2022/03/25 07:54:39;;;;;;;53.58;39.45;;;;;;;7.61;72.86;103092.53;5053440;28;20075;-34
2022/03/25 07:57:05;;;;;;;47.80;37.28;;;;;;;7.74;71.87;103095.63;5052943;28;20029;-34
2022/03/25 07:59:31;;;;;;;48.03;37.28;;;;;;;7.91;71.83;103095.75;5053408;28;20533;-34
2022/03/25 08:01:57;;;;;;;47.45;36.55;;;;;;;7.98;70.83;103103.03;5052800;28;20079;-35
2022/03/25 08:04:25;;;;;;;45.20;36.50;;;;;;;8.03;70.06;103089.09;5052812;28;20022;-35
2022/03/25 08:06:52;;;;;;;44.53;36.28;;;;;;;8.26;70.59;103101.00;5052874;28;20052;-35
2022/03/25 08:09:17;;;;;;;44.83;36.45;;;;;;;8.33;69.43;103109.28;5052466;28;20083;-35
2022/03/25 08:11:45;;;;;;;40.72;33.60;;;;;;;8.32;68.92;103104.06;5053546;28;20029;-35
2022/03/25 08:14:12;;;;;;;40.22;32.80;;;;;;;8.39;68.46;103105.97;5052663;28;20029;-35
2022/03/25 08:16:37;;;;;;;;;;;;;;;8.55;69.15;103116.00;5052866;28;20040;-34
2022/03/25 08:19:02;;;;;;;43.50;36.60;;;;;;;8.49;69.13;103095.06;5053008;28;19908;-34
2022/03/25 08:21:27;;;;;;;46.70;36.83;;;;;;;8.70;68.79;103114.38;5052800;28;20036;-34
2022/03/25 08:29:22;;;;;;;42.75;33.20;;;;;;;8.97;66.10;103115.97;5052558;28;20496;-35
2022/03/25 08:31:47;;;;;;;41.55;32.38;;;;;;;9.14;65.42;103116.00;5052550;28;20108;-35
2022/03/25 08:34:15;;;;;;;40.15;33.15;;;;;;;9.23;63.97;103121.25;5052511;28;20056;-35
2022/03/25 08:36:41;;;;;;;36.80;30.58;;;;;;;9.34;65.13;103114.69;5052786;28;20033;-35
2022/03/25 08:39:06;;;;;;;42.60;32.60;;;;;;;9.44;64.16;103109.97;5052341;28;20485;-35
2022/03/25 08:41:32;;;;;;;42.83;32.23;;;;;;;9.57;63.82;103114.88;5052586;28;20032;-36
2022/03/25 08:43:58;;;;;;;40.53;31.98;;;;;;;9.68;63.22;103114.53;5052224;28;20040;-35
2022/03/25 08:46:23;;;;;;;35.10;30.20;;;;;;;9.81;62.45;103119.41;5052886;28;20029;-35
2022/03/25 08:48:48;;;;;;;36.47;30.03;;;;;;;9.83;62.19;103119.25;5052165;28;20276;-35
2022/03/25 08:51:14;;;;;;;40.87;31.43;;;;;;;9.89;62.03;103111.28;5052493;28;20060;-35
2022/03/25 08:53:41;;;;;;;37.42;29.83;;;;;;;10.05;60.35;103123.91;5052305;28;20032;-35
2022/03/25 08:56:07;;;;;;;38.22;30.90;;;;;;;9.91;59.11;103114.69;5052567;28;20104;-35
2022/03/25 08:58:32;;;;;;;;;;;;;;;10.18;58.91;103126.09;5056110;28;20077;-35
2022/03/25 09:00:58;;;;;;;39.30;28.85;;;;;;;10.25;58.37;103132.56;5056033;28;19967;-35
2022/03/25 09:03:23;;;;;;;37.87;28.13;;;;;;;10.32;57.86;103123.56;5055705;28;20041;-35
2022/03/25 09:05:48;;;;;;;38.10;30.17;;;;;;;10.37;57.80;103124.91;5056198;28;20133;-35
2022/03/25 09:08:15;;;;;;;36.87;29.37;;;;;;;10.50;58.24;103131.44;5056212;28;20064;-35
2022/03/25 09:10:40;;;;;;;;;;;;;;;10.64;58.18;103131.72;5056438;28;20029;-35
2022/03/25 09:13:05;;;;;;;35.45;27.33;;;;;;;10.71;57.15;103138.97;5056112;28;20476;-35
2022/03/25 09:15:31;;;;;;;37.63;27.37;;;;;;;10.81;55.94;103128.75;5055807;28;20036;-35
2022/03/25 09:17:56;;;;;;;35.58;26.50;;;;;;;11.02;56.04;103135.41;5055635;28;20033;-35
2022/03/25 09:20:22;;;;;;;33.73;27.80;;;;;;;11.20;55.07;103143.28;5055654;28;20039;-35
2022/03/25 09:22:47;;;;;;;34.10;26.90;;;;;;;11.25;54.23;103138.16;5055907;28;20060;-36
2022/03/25 09:25:13;;;;;;;33.50;25.53;;;;;;;11.44;54.89;103145.81;5055628;28;20469;-35
2022/03/25 09:27:39;;;;;;;33.08;26.75;;;;;;;11.46;53.13;103135.63;5055140;28;20782;-35
2022/03/25 09:30:07;;;;;;;32.83;26.45;;;;;;;11.53;53.29;103149.31;5055785;28;20033;-34
2022/03/25 09:32:33;;;;;;;34.10;27.65;;;;;;;11.63;52.11;103146.34;5055275;28;20447;-35
2022/03/25 09:35:10;;;;;;;31.70;25.87;;;;;;;11.60;52.48;103129.41;5055893;28;20166;-35
2022/03/25 09:37:36;;;;;;;31.17;25.38;;;;;;;11.74;51.71;103141.31;5055990;28;20270;-35
2022/03/25 09:40:03;;;;;;;29.93;25.37;;;;;;;11.88;51.21;103139.72;5055293;28;20390;-35
2022/03/25 09:42:30;;;;;;;39.13;28.95;;;;;;;11.91;50.62;103135.78;5054845;28;20028;-35
2022/03/25 09:44:56;;;;;;;32.03;26.63;;;;;;;12.13;50.46;103128.63;5055156;28;20079;-35
2022/03/25 09:47:22;;;;;;;32.47;26.23;;;;;;;12.19;49.73;103122.44;5055353;28;20091;-35
2022/03/25 09:49:47;;;;;;;33.40;26.77;;;;;;;12.27;49.49;103131.34;5055696;28;20033;-35
2022/03/25 09:52:12;;;;;;;37.47;26.03;;;;;;;12.40;50.26;103121.72;5053469;28;20133;-35
2022/03/25 09:54:38;;;;;;;31.53;24.67;;;;;;;12.51;49.25;103123.94;5055669;28;20048;-35
2022/03/25 09:57:04;;;;;;;33.60;24.23;;;;;;;12.53;48.20;103119.16;5054694;28;20801;-35
2022/03/25 09:59:29;;;;;;;29.95;24.10;;;;;;;12.56;48.51;103121.50;5054663;28;20435;-35
2022/03/25 10:01:55;;;;;;;28.23;23.17;;;;;;;12.61;48.55;103106.34;5054521;28;20029;-35
2022/03/25 10:04:42;;;;;;;30.63;23.60;;;;;;;12.80;48.78;103121.19;5055413;28;20259;-35
2022/03/25 10:07:27;;;;;;;29.10;24.15;;;;;;;12.81;48.20;103125.59;5054976;28;20131;-35
2022/03/25 10:10:14;;;;;;;23.80;21.17;;;;;;;12.92;48.55;103112.53;5054237;28;20178;-35
2022/03/25 10:12:42;;;;;;;33.73;21.97;;;;;;;12.95;47.65;103112.16;5054378;28;20039;-35
2022/03/25 10:15:28;;;;;;;25.20;22.50;;;;;;;13.07;48.32;103110.63;5054632;28;20047;-35
2022/03/25 10:18:01;;;;;;;27.10;21.98;;;;;;;13.22;46.39;103116.03;5054768;28;20035;-35
2022/03/25 10:20:36;;;;;;;22.77;19.65;;;;;;;13.26;46.47;103114.63;5053649;28;20500;-35
2022/03/25 10:23:10;;;;;;;25.88;21.45;;;;;;;13.28;44.73;103115.28;5054761;28;20353;-35
2022/03/25 10:25:35;;;;;;;27.38;23.00;;;;;;;13.16;45.06;103117.63;5054898;28;20346;-35
2022/03/25 10:28:00;;;;;;;29.23;21.00;;;;;;;13.42;45.73;103114.38;5054344;28;20166;-35
2022/03/25 10:30:40;;;;;;;28.35;20.55;;;;;;;13.67;46.88;103111.25;5054831;28;20345;-35
2022/03/25 10:33:34;;;;;;;27.50;21.58;;;;;;;13.84;46.68;103112.63;5054233;28;20227;-35
2022/03/25 10:36:10;;;;;;;26.55;19.48;;;;;;;14.05;44.51;103103.56;5054238;28;20172;-35
2022/03/25 10:39:11;;;;;;;22.95;17.27;;;;;;;14.16;44.87;103103.84;5053988;28;20422;-35
2022/03/25 10:41:49;;;;;;;23.85;16.63;;;;;;;14.19;41.78;103108.03;5054733;28;20029;-35
2022/03/25 10:44:15;;;;;;;24.50;16.98;;;;;;;14.21;40.96;103103.25;5054333;28;20083;-35
2022/03/25 10:46:42;;;;;;;25.15;18.40;;;;;;;14.12;41.56;103109.91;5054075;28;20029;-35
2022/03/25 10:49:12;;;;;;;23.58;18.63;;;;;;;14.15;42.86;103099.47;5053383;28;20033;-35
2022/03/25 10:51:51;;;;;;;22.85;17.95;;;;;;;14.20;43.19;103106.16;5054195;28;20127;-35
2022/03/25 10:54:22;;;;;;;22.42;18.00;;;;;;;14.28;41.29;103101.41;5054360;28;20413;-35
2022/03/25 10:56:51;;;;;;;19.80;15.38;;;;;;;14.36;40.92;103100.41;5053878;28;20165;-35
2022/03/25 10:59:21;;;;;;;20.45;16.55;;;;;;;14.42;40.23;103105.03;5054056;28;20481;-35
2022/03/25 11:01:49;;;;;;;22.52;17.45;;;;;;;14.52;41.79;103105.53;5053368;28;20512;-35
2022/03/25 11:04:16;;;;;;;23.65;18.33;;;;;;;14.51;40.17;103106.59;5053840;28;20070;-35
2022/03/25 11:06:43;;;;;;;;;;;;;;;14.70;40.43;103101.44;5054849;28;20032;-35
2022/03/25 11:09:09;;;;;;;26.90;17.83;;;;;;;14.77;39.94;103103.13;5053550;28;19927;-35
2022/03/25 11:11:35;;;;;;;;;;;;;;;15.00;41.89;103097.34;5053682;28;20029;-35
2022/03/25 11:14:04;;;;;;;25.17;19.07;;;;;;;14.89;39.55;103084.31;5054192;28;20365;-35
2022/03/25 11:16:31;;;;;;;31.52;22.02;;;;;;;14.90;40.19;103096.88;5053335;28;20466;-35
2022/03/25 11:18:57;;;;;;;27.65;20.63;;;;;;;15.09;40.58;103098.00;5053094;28;20032;-36
2022/03/25 11:21:23;;;;;;;;;;;;;;;15.23;41.08;103102.41;5053757;28;20378;-35
2022/03/25 11:23:52;;;;;;;28.50;19.73;;;;;;;15.22;40.55;103092.53;5053677;28;20017;-35